Time;durP1;ratioP1;P1;durP2;ratioP2;P2;SDS_P1;SDS_P2;PMS_P1;PMS_P2;Temp;Humidity;BMP_temperature;BMP_pressure;BME280_temperature;BME280_humidity;BME280_pressure;Samples;Min_cycle;Max_cycle;Signal;HPM_P1;HPM_P2
2022/12/07 00:00:58;;;;;;;;;;;;;;;11.20;75.33;101658.38;5093319;28;20404;-87
2022/12/07 00:03:24;;;;;;;;;;;;;;;11.24;75.18;101662.06;5072982;28;19920;-87
2022/12/07 00:05:49;;;;;;;;;;;;;;;11.22;75.38;101662.00;5081824;28;19917;-88
2022/12/07 00:08:15;;;;;;;;;;;;;;;11.27;75.04;101667.50;5093945;28;19934;-87
2022/12/07 00:10:40;;;;;;;;;;;;;;;11.28;74.83;101669.31;5076212;28;19916;-87
2022/12/07 00:13:06;;;;;;;;;;;;;;;11.24;75.41;101664.69;5093159;28;19912;-87
2022/12/07 00:15:33;;;;;;;;;;;;;;;11.25;75.31;101666.50;5092471;28;20464;-87
2022/12/07 00:17:58;;;;;;;;;;;;;;;11.27;75.07;101671.03;5087099;27;19912;-87
2022/12/07 00:20:23;;;;;;;;;;;;;;;11.31;74.94;101673.03;5116844;27;20026;-88
2022/12/07 00:22:51;;;;;;;;;;;;;;;11.33;74.65;101667.91;5116554;27;19911;-88
2022/12/07 00:25:17;;;;;;;;;;;;;;;11.30;74.53;101660.78;5116515;27;19962;-88
2022/12/07 00:27:42;;;;;;;;;;;;;;;11.32;74.70;101666.09;5096542;27;19955;-88
2022/12/07 00:30:09;;;;;;;;;;;;;;;11.28;75.05;101669.31;5090851;28;19955;-88
2022/12/07 00:32:34;;;;;;;;;;;;;;;11.26;75.02;101660.47;5110572;27;19911;-88
2022/12/07 00:35:00;;;;;;;;;;;;;;;11.27;74.84;101659.66;5103283;27;20300;-88
2022/12/07 00:37:25;;;;;;;;;;;;;;;11.28;75.27;101659.78;5086468;28;19912;-88
2022/12/07 00:39:51;;;;;;;;;;;;;;;11.27;75.01;101660.56;5112885;28;19912;-87
2022/12/07 00:42:16;;;;;;;;;;;;;;;11.32;74.64;101663.47;5089671;27;20583;-87
2022/12/07 00:44:42;;;;;;;;;;;;;;;11.33;74.79;101663.59;5132338;27;22227;-88
2022/12/07 00:47:07;;;;;;;;;;;;;;;11.29;75.15;101660.69;5116354;27;19911;-87
2022/12/07 00:49:32;;;;;;;;;;;;;;;11.35;74.90;101663.69;5106931;27;20360;-88
2022/12/07 00:51:58;;;;;;;;;;;;;;;11.31;74.53;101659.97;5097706;27;19970;-88
2022/12/07 00:54:23;;;;;;;;;;;;;;;11.34;74.81;101657.53;5112499;27;19912;-88
2022/12/07 00:56:49;;;;;;;;;;;;;;;11.31;74.63;101659.06;5104994;28;20348;-88
2022/12/07 00:59:14;;;;;;;;;;;;;;;11.30;74.66;101650.31;5106484;27;20324;-88
2022/12/07 01:01:40;;;;;;;;;;;;;;;11.32;74.74;101651.28;5100543;28;19911;-88
2022/12/07 01:04:05;;;;;;;;;;;;;;;11.31;74.64;101656.44;5104291;27;19911;-88
2022/12/07 01:06:31;;;;;;;;;;;;;;;11.30;74.78;101649.41;5101827;28;20349;-86
2022/12/07 01:08:56;;;;;;;;;;;;;;;11.26;74.79;101650.94;5110011;28;19916;-89
2022/12/07 01:11:23;;;;;;;;;;;;;;;11.33;74.93;101645.28;5095815;28;19915;-89
2022/12/07 01:13:53;;;;;;;;;;;;;;;11.35;74.69;101641.06;5114086;27;19968;-89
2022/12/07 01:16:21;;;;;;;;;;;;;;;11.28;74.79;101637.94;5095506;28;19912;-89
2022/12/07 01:18:48;;;;;;;;;;;;;;;11.33;74.74;101631.31;5103439;28;19924;-88
2022/12/07 01:21:15;;;;;;;;;;;;;;;11.36;74.45;101636.72;5112732;28;19912;-88
2022/12/07 01:23:42;;;;;;;;;;;;;;;11.28;74.92;101633.63;5104831;28;19919;-89
2022/12/07 01:26:10;;;;;;;;;;;;;;;11.30;74.64;101626.78;5088607;28;19974;-89
2022/12/07 01:28:37;;;;;;;;;;;;;;;11.31;74.43;101627.69;5105667;28;19912;-88
2022/12/07 01:31:03;;;;;;;;;;;;;;;11.31;74.82;101620.75;5097822;28;19916;-89
2022/12/07 01:33:31;;;;;;;;;;;;;;;11.40;74.38;101630.88;5095664;28;19912;-89
2022/12/07 01:36:08;;;;;;;;;;;;;;;11.38;74.42;101629.88;5109689;28;20020;-88
2022/12/07 01:38:34;;;;;;;;;;;;;;;11.35;74.51;101627.97;5096796;28;20400;-89
2022/12/07 01:41:00;;;;;;;;;;;;;;;11.35;74.55;101621.84;5111795;28;20060;-89
2022/12/07 01:43:27;;;;;;;;;;;;;;;11.33;74.69;101621.75;5104276;28;20061;-87
2022/12/07 01:45:52;;;;;;;;;;;;;;;11.31;74.95;101625.06;5107964;28;20300;-86
2022/12/07 01:48:19;;;;;;;;;;;;;;;11.27;74.95;101618.72;5112285;28;20428;-88
2022/12/07 01:50:47;;;;;;;;;;;;;;;11.31;74.52;101625.06;5112183;28;19955;-89
2022/12/07 01:53:13;;;;;;;;;;;;;;;11.33;74.40;101619.13;5096350;28;20440;-88
2022/12/07 01:55:39;;;;;;;;;;;;;;;11.32;74.48;101627.75;5086279;28;20014;-89
2022/12/07 01:58:04;;;;;;;;;;;;;;;11.39;74.12;101619.53;5096048;28;20367;-88
2022/12/07 02:00:31;;;;;;;;;;;;;;;11.29;74.67;101614.50;5102954;28;19916;-88
2022/12/07 02:02:58;;;;;;;;;;;;;;;11.27;74.68;101610.00;5075022;28;19935;-89
2022/12/07 02:05:24;;;;;;;;;;;;;;;11.30;74.83;101612.78;5104769;28;19912;-89
2022/12/07 02:07:49;;;;;;;;;;;;;;;11.26;74.76;101616.94;5087820;28;19912;-89
2022/12/07 02:10:16;;;;;;;;;;;;;;;11.31;74.76;101607.66;5111127;28;19923;-89
2022/12/07 02:12:41;;;;;;;;;;;;;;;11.41;74.40;101609.19;5091297;28;19966;-89
2022/12/07 02:15:07;;;;;;;;;;;;;;;11.33;74.46;101611.28;5104924;28;19920;-89
2022/12/07 02:17:54;;;;;;;;;;;;;;;11.30;74.58;101602.34;5091136;28;20008;-89
2022/12/07 02:20:39;;;;;;;;;;;;;;;11.37;74.35;101605.44;5109834;28;19919;-88
2022/12/07 02:23:23;;;;;;;;;;;;;;;11.38;74.57;101596.78;5068371;28;19958;-89
2022/12/07 02:26:06;;;;;;;;;;;;;;;11.33;74.66;101599.94;5107387;28;19912;-87
2022/12/07 02:28:56;;;;;;;;;;;;;;;11.29;74.78;101596.19;5085488;28;19965;-89
2022/12/07 02:31:22;;;;;;;;;;;;;;;11.35;74.36;101599.22;5064485;28;19915;-89
2022/12/07 02:33:55;;;;;;;;;;;;;;;11.38;74.13;101602.00;5092263;28;19920;-88
2022/12/07 02:36:28;;;;;;;;;;;;;;;11.38;74.56;101603.72;5094215;28;20350;-88
2022/12/07 02:38:57;;;;;;;;;;;;;;;11.36;74.71;101597.50;5088380;28;19920;-89
2022/12/07 02:41:26;;;;;;;;;;;;;;;11.38;74.41;101596.78;5105693;28;20290;-88
2022/12/07 02:43:53;;;;;;;;;;;;;;;11.38;74.19;101596.78;5092487;28;19962;-88
2022/12/07 02:46:39;;;;;;;;;;;;;;;11.36;74.31;101600.09;5111327;28;20315;-88
2022/12/07 02:49:05;;;;;;;;;;;;;;;11.39;74.08;101588.16;5111534;28;19912;-89
2022/12/07 02:51:31;;;;;;;;;;;;;;;11.36;74.39;101590.53;5077179;28;19916;-89
2022/12/07 02:53:58;;;;;;;;;;;;;;;11.36;74.11;101593.16;5105905;28;20308;-89
2022/12/07 02:56:28;;;;;;;;;;;;;;;11.37;74.40;101587.16;5083297;28;19912;-88
2022/12/07 02:59:04;;;;;;;;;;;;;;;11.32;74.35;101593.78;5084659;28;19912;-89
2022/12/07 03:01:45;;;;;;;;;;;;;;;11.33;74.29;101589.47;5094508;28;19922;-88
2022/12/07 03:04:17;;;;;;;;;;;;;;;11.34;74.46;101588.66;5099770;28;19919;-88
2022/12/07 03:06:48;;;;;;;;;;;;;;;11.30;74.56;101590.19;5098629;28;20385;-89
2022/12/07 03:09:27;;;;;;;;;;;;;;;11.33;74.75;101590.38;5088471;28;19912;-89
2022/12/07 03:12:14;;;;;;;;;;;;;;;11.38;74.38;101593.28;5091692;28;19920;-89
2022/12/07 03:14:41;;;;;;;;;;;;;;;11.31;74.70;101594.59;5095228;28;19919;-89
2022/12/07 03:17:12;;;;;;;;;;;;;;;11.37;74.35;101591.47;5107083;28;19938;-88
2022/12/07 03:19:38;;;;;;;;;;;;;;;11.34;74.32;101586.94;5096268;28;19923;-89
2022/12/07 03:22:06;;;;;;;;;;;;;;;11.32;74.39;101582.41;5090220;28;20416;-88
2022/12/07 03:24:34;;;;;;;;;;;;;;;11.32;74.49;101579.81;5082708;28;19972;-88
2022/12/07 03:27:01;;;;;;;;;;;;;;;11.32;74.43;101585.91;5092640;28;19915;-89
2022/12/07 03:29:31;;;;;;;;;;;;;;;11.31;74.50;101583.25;5086234;28;19915;-89
2022/12/07 03:32:23;;;;;;;;;;;;;;;11.35;74.24;101590.47;5114223;28;20323;-88
2022/12/07 03:34:49;;;;;;;;;;;;;;;11.33;74.32;101585.13;5119751;27;19912;-89
2022/12/07 03:37:31;;;;;;;;;;;;;;;11.29;74.56;101582.22;5116049;28;19969;-89
2022/12/07 03:40:15;;;;;;;;;;;;;;;11.35;74.16;101587.84;5101469;28;19934;-89
2022/12/07 03:42:40;;;;;;;;;;;;;;;11.32;74.42;101592.88;5114503;28;20385;-89
2022/12/07 03:45:06;;;;;;;;;;;;;;;11.32;74.24;101588.53;5101770;28;19916;-89
2022/12/07 03:47:54;;;;;;;;;;;;;;;11.29;74.58;101588.34;5093003;28;19924;-89
2022/12/07 03:50:22;;;;;;;;;;;;;;;11.31;74.26;101588.47;5103662;28;19920;-88
2022/12/07 03:52:52;;;;;;;;;;;;;;;11.31;74.71;101591.09;5115234;28;19915;-88
2022/12/07 03:55:19;;;;;;;;;;;;;;;11.32;74.55;101595.50;5101339;28;19916;-89
2022/12/07 03:57:45;;;;;;;;;;;;;;;11.30;74.51;101590.19;5114279;28;20010;-88
2022/12/07 04:00:11;;;;;;;;;;;;;;;11.23;74.77;101593.19;5114306;28;20023;-88
2022/12/07 04:02:36;;;;;;;;;;;;;;;11.29;74.35;101590.06;5114355;28;19969;-88
2022/12/07 04:05:02;;;;;;;;;;;;;;;11.26;74.85;101585.56;5086641;28;19916;-89
2022/12/07 04:07:27;;;;;;;;;;;;;;;11.31;74.66;101586.75;5083777;28;20288;-88
2022/12/07 04:09:54;;;;;;;;;;;;;;;11.31;74.56;101586.75;5113568;28;19912;-89
2022/12/07 04:12:20;;;;;;;;;;;;;;;11.30;74.40;101591.88;5105686;28;19912;-89
2022/12/07 04:14:46;;;;;;;;;;;;;;;11.30;74.62;101589.25;5107776;28;19934;-88
2022/12/07 04:17:12;;;;;;;;;;;;;;;11.30;74.32;101584.03;5092320;28;19912;-88
2022/12/07 04:19:37;;;;;;;;;;;;;;;11.31;74.16;101584.13;5086043;28;20400;-86
2022/12/07 04:22:05;;;;;;;;;;;;;;;11.27;74.37;101589.97;5087930;28;19916;-87
2022/12/07 04:24:31;;;;;;;;;;;;;;;11.28;74.76;101589.19;5087048;28;19965;-87
2022/12/07 04:26:56;;;;;;;;;;;;;;;11.26;74.43;101587.25;5084613;28;19920;-87
2022/12/07 04:29:22;;;;;;;;;;;;;;;11.29;74.36;101593.59;5092602;28;19912;-87
2022/12/07 04:31:48;;;;;;;;;;;;;;;11.32;74.21;101582.41;5076252;28;20499;-89
2022/12/07 04:34:13;;;;;;;;;;;;;;;11.28;74.35;101586.56;5092861;28;19951;-88
2022/12/07 04:36:39;;;;;;;;;;;;;;;11.25;74.85;101582.84;5093375;28;19965;-88
2022/12/07 04:39:06;;;;;;;;;;;;;;;11.26;74.42;101588.19;5075939;28;19959;-88
2022/12/07 04:41:31;;;;;;;;;;;;;;;11.24;74.89;101583.63;5072336;28;19986;-87
2022/12/07 04:43:58;;;;;;;;;;;;;;;11.30;74.30;101576.19;5075845;28;19949;-86
2022/12/07 04:46:24;;;;;;;;;;;;;;;11.28;74.51;101576.09;5092211;28;20075;-88
2022/12/07 04:48:49;;;;;;;;;;;;;;;11.26;74.43;101577.72;5075991;28;20393;-89
2022/12/07 04:51:22;;;;;;;;;;;;;;;11.24;74.87;101578.41;5075188;28;20399;-87
2022/12/07 04:53:48;;;;;;;;;;;;;;;11.26;74.56;101579.41;5075765;28;19923;-87
2022/12/07 04:56:14;;;;;;;;;;;;;;;11.21;74.74;101573.88;5075170;28;19912;-87
2022/12/07 04:58:41;;;;;;;;;;;;;;;11.26;74.50;101575.09;5084823;28;19916;-87
2022/12/07 05:01:06;;;;;;;;;;;;;;;11.21;74.88;101576.50;5075113;28;20019;-88
2022/12/07 05:03:33;;;;;;;;;;;;;;;11.21;74.58;101581.72;5094576;28;20482;-88
2022/12/07 05:05:58;;;;;;;;;;;;;;;11.23;74.49;101577.50;5109571;28;19928;-89
2022/12/07 05:08:25;;;;;;;;;;;;;;;11.24;74.78;101581.00;5094066;28;19934;-89
2022/12/07 05:10:51;;;;;;;;;;;;;;;11.23;74.82;101584.44;5092685;28;19965;-89
2022/12/07 05:13:17;;;;;;;;;;;;;;;11.27;74.47;101581.22;5074168;28;19916;-88
2022/12/07 05:15:44;;;;;;;;;;;;;;;11.23;74.44;101585.34;5072069;28;19920;-88
2022/12/07 05:18:12;;;;;;;;;;;;;;;11.24;74.43;101591.47;5071518;28;19927;-89
2022/12/07 05:20:38;;;;;;;;;;;;;;;11.26;74.41;101584.63;5114859;27;19962;-88
2022/12/07 05:23:03;;;;;;;;;;;;;;;11.20;74.42;101586.06;5091247;27;19959;-88
2022/12/07 05:25:28;;;;;;;;;;;;;;;11.24;74.65;101588.84;5124906;27;19964;-89
2022/12/07 05:27:55;;;;;;;;;;;;;;;11.20;74.81;101596.53;5089082;28;19934;-88
2022/12/07 05:30:20;;;;;;;;;;;;;;;11.19;74.94;101594.69;5104082;27;20301;-88
2022/12/07 05:32:45;;;;;;;;;;;;;;;11.18;74.71;101590.28;5133960;27;19911;-86
2022/12/07 05:35:13;;;;;;;;;;;;;;;11.21;74.79;101590.47;5102602;27;20245;-87
2022/12/07 05:37:38;;;;;;;;;;;;;;;11.21;74.48;101584.34;5105646;27;19939;-87
2022/12/07 05:40:04;;;;;;;;;;;;;;;11.25;74.26;101586.34;5115354;27;20014;-87
2022/12/07 05:42:30;;;;;;;;;;;;;;;11.21;74.42;101585.25;5106162;27;19918;-86
2022/12/07 05:44:55;;;;;;;;;;;;;;;11.24;74.50;101583.63;5126834;27;20066;-87
2022/12/07 05:47:22;;;;;;;;;;;;;;;11.19;74.66;101586.84;5129440;27;19911;-88
2022/12/07 05:49:47;;;;;;;;;;;;;;;11.16;74.87;101586.66;5112461;27;19912;-88
2022/12/07 05:52:13;;;;;;;;;;;;;;;11.15;74.91;101590.09;5132033;27;20025;-89
2022/12/07 05:54:39;;;;;;;;;;;;;;;11.16;74.66;101585.78;5131957;27;20289;-90
2022/12/07 05:57:06;;;;;;;;;;;;;;;11.18;74.85;101592.00;5132897;27;19911;-88
2022/12/07 05:59:31;;;;;;;;;;;;;;;11.20;74.89;101591.28;5111620;27;19979;-88
2022/12/07 06:01:57;;;;;;;;;;;;;;;11.19;74.65;101588.56;5114053;27;19916;-89
2022/12/07 06:04:28;;;;;;;;;;;;;;;11.21;74.63;101587.84;5132668;27;20022;-90
2022/12/07 06:06:54;;;;;;;;;;;;;;;11.19;74.81;101592.06;5115356;27;19932;-89
2022/12/07 06:09:20;;;;;;;;;;;;;;;11.18;74.61;101594.63;5108133;28;19973;-86
2022/12/07 06:14:29;;;;;;;;;;;;;;;11.18;74.79;101600.75;5110739;27;19981;-88
2022/12/07 06:16:55;;;;;;;;;;;;;;;11.17;74.59;101600.63;5092763;27;20376;-88
2022/12/07 06:19:21;;;;;;;;;;;;;;;11.18;74.86;101599.84;5132650;27;19923;-88
2022/12/07 06:21:46;;;;;;;;;;;;;;;11.16;74.52;101598.84;5090387;28;20059;-89
2022/12/07 06:24:15;;;;;;;;;;;;;;;11.19;74.72;101596.41;5111361;27;19972;-89
2022/12/07 06:26:41;;;;;;;;;;;;;;;11.21;74.56;101597.41;5131265;27;20026;-90
2022/12/07 06:29:07;;;;;;;;;;;;;;;11.20;74.39;101601.75;5105871;27;20307;-88
2022/12/07 06:31:32;;;;;;;;;;;;;;;11.17;74.86;101604.16;5086802;28;19923;-88
2022/12/07 06:33:58;;;;;;;;;;;;;;;11.18;74.36;101598.13;5082990;28;20437;-88
2022/12/07 06:36:25;;;;;;;;;;;;;;;11.16;75.01;101604.06;5122582;27;20342;-89
2022/12/07 06:38:51;;;;;;;;;;;;;;;11.16;74.52;101598.84;5110936;27;20372;-87
2022/12/07 06:41:17;;;;;;;;;;;;;;;11.18;74.38;101595.50;5112776;27;20329;-87
2022/12/07 06:43:49;;;;;;;;;;;;;;;11.20;74.45;101591.28;5087914;28;19966;-88
2022/12/07 06:46:14;;;;;;;;;;;;;;;11.17;74.89;101596.31;5103522;28;19923;-88
2022/12/07 06:48:49;;;;;;;;;;;;;;;11.14;74.54;101596.13;5084379;28;19915;-87
2022/12/07 06:51:20;;;;;;;;;;;;;;;11.15;74.68;101597.94;5105153;28;19927;-88
2022/12/07 06:53:46;;;;;;;;;;;;;;;11.14;74.74;101598.72;5113899;28;19912;-88
2022/12/07 06:56:11;;;;;;;;;;;;;;;11.17;74.80;101596.31;5124918;28;19941;-89
2022/12/07 06:58:37;;;;;;;;;;;;;;;11.14;74.52;101598.72;5091195;28;20304;-87
2022/12/07 07:01:03;;;;;;;;;;;;;;;11.15;74.37;101597.00;5089353;28;19915;-88
2022/12/07 07:03:33;;;;;;;;;;;;;;;11.15;74.94;101592.72;5078502;28;19972;-92
2022/12/07 07:06:03;;;;;;;;;;;;;;;11.16;75.10;101591.00;5110539;28;19925;-87
2022/12/07 07:08:29;;;;;;;;;;;;;;;11.18;75.16;101592.91;5106902;28;19922;-87
2022/12/07 07:10:55;;;;;;;;;;;;;;;11.24;75.11;101602.88;5094950;28;19919;-86
2022/12/07 07:13:24;;;;;;;;;;;;;;;11.28;74.92;101597.03;5112381;28;19919;-86
2022/12/07 07:15:49;;;;;;;;;;;;;;;11.34;74.21;101601.72;5085142;28;19923;-85
2022/12/07 07:18:15;;;;;;;;;;;;;;;11.32;74.51;101604.22;5086243;28;19920;-85
2022/12/07 07:20:40;;;;;;;;;;;;;;;11.30;74.44;101604.94;5102171;28;20320;-85
2022/12/07 07:23:09;;;;;;;;;;;;;;;11.33;74.72;101603.44;5104943;28;19967;-85
2022/12/07 07:25:45;;;;;;;;;;;;;;;;;;;;;
2022/12/07 07:28:13;;;;;;;;;;;;;;;11.35;74.25;101600.94;5110121;28;19917;-85
2022/12/07 07:30:42;;;;;;;;;;;;;;;11.35;74.31;101593.09;5087925;28;19923;-86
2022/12/07 07:33:10;;;;;;;;;;;;;;;11.33;74.40;101600.81;5098239;28;19930;-89
2022/12/07 07:35:40;;;;;;;;;;;;;;;11.37;74.07;101608.06;5090881;28;19950;-88
2022/12/07 07:38:15;;;;;;;;;;;;;;;11.32;74.74;101604.22;5091425;28;19968;-92
2022/12/07 07:40:54;;;;;;;;;;;;;;;11.47;74.30;101604.34;5113856;28;19958;-89
2022/12/07 07:43:21;;;;;;;;;;;;;;;11.46;74.40;101597.28;5081288;28;19916;-90
2022/12/07 07:45:49;;;;;;;;;;;;;;;11.51;73.71;101610.66;5089449;28;19983;-90
2022/12/07 07:48:25;;;;;;;;;;;;;;;11.54;73.93;101603.00;5084791;28;20019;-86
2022/12/07 07:50:50;;;;;;;;;;;;;;;11.54;73.84;101603.00;5102551;27;20018;-85
2022/12/07 07:53:16;;;;;;;;;;;;;;;11.51;73.82;101600.19;5131772;27;19951;-87
2022/12/07 07:55:41;;;;;;;;;;;;;;;11.47;74.05;101606.03;5117369;27;19922;-87
2022/12/07 07:58:07;;;;;;;;;;;;;;;11.54;73.76;101609.13;5111401;27;20452;-86
2022/12/07 08:00:33;;;;;;;;;;;;;;;11.52;73.71;101613.38;5130219;27;19942;-88
2022/12/07 08:02:59;;;;;;;;;;;;;;;11.47;73.92;101611.25;5124026;27;20285;-87
2022/12/07 08:05:24;;;;;;;;;;;;;;;11.49;74.04;101610.53;5134102;27;19921;-87
2022/12/07 08:07:51;;;;;;;;;;;;;;;11.48;73.83;101618.31;5115571;27;19918;-87
2022/12/07 08:10:16;;;;;;;;;;;;;;;11.48;74.08;101615.69;5133527;27;19915;-87
2022/12/07 08:15:27;;;;;;;;;;;;;;;11.47;74.09;101616.47;5111808;27;19950;-88
2022/12/07 08:18:04;;;;;;;;;;;;;;;11.53;74.00;101609.03;5115695;27;20173;-93
2022/12/07 08:20:32;;;;;;;;;;;;;;;11.54;73.95;101609.13;5113241;28;20389;-90
2022/12/07 08:23:04;;;;;;;;;;;;;;;11.49;74.26;101614.88;5093869;28;19937;-90
2022/12/07 08:25:31;;;;;;;;;;;;;;;11.54;73.67;101614.38;5097459;28;20049;-89
2022/12/07 08:27:57;;;;;;;;;;;;;;;11.54;73.68;101606.53;5111696;28;19912;-89
2022/12/07 08:30:29;;;;;;;;;;;;;;;11.53;74.11;101606.41;5080019;28;19951;-90
2022/12/07 08:32:55;;;;;;;;;;;;;;;11.54;73.84;101606.53;5112323;28;19916;-88
2022/12/07 08:35:20;;;;;;;;;;;;;;;11.55;74.01;101600.47;5108883;28;20381;-89
2022/12/07 08:37:47;;;;;;;;;;;;;;;11.57;73.94;101603.19;5112158;28;20002;-89
2022/12/07 08:40:15;;;;;;;;;;;;;;;11.52;74.13;101602.91;5097608;28;19911;-89
2022/12/07 08:42:42;;;;;;;;;;;;;;;11.51;74.32;101587.09;5114090;28;20003;-89
2022/12/07 08:45:10;;;;;;;;;;;;;;;11.53;73.81;101589.00;5106042;28;19965;-88
2022/12/07 08:47:37;;;;;;;;;;;;;;;11.41;74.88;101588.25;5108402;28;20373;-87
2022/12/07 08:50:03;;;;;;;;;;;;;;;11.47;74.69;101588.66;5104408;28;20100;-86
2022/12/07 08:52:29;;;;;;;;;;;;;;;11.50;74.03;101590.53;5099215;28;19916;-86
2022/12/07 08:54:55;;;;;;;;;;;;;;;11.51;74.61;101582.78;5103520;28;19916;-86
2022/12/07 08:57:20;;;;;;;;;;;;;;;11.58;74.07;101577.13;5108547;28;19912;-86
2022/12/07 08:59:46;;;;;;;;;;;;;;;11.59;74.21;101572.81;5106289;28;19911;-87
2022/12/07 09:02:11;;;;;;;;;;;;;;;11.55;74.16;101565.56;5099916;28;20001;-86
2022/12/07 09:04:36;;;;;;;;;;;;;;;11.55;74.25;101571.69;5112229;28;20312;-86
2022/12/07 09:07:03;;;;;;;;;;;;;;;11.58;74.67;101566.66;5104636;28;19996;-88
2022/12/07 09:09:29;;;;;;;;;;;;;;;11.58;74.83;101564.06;5098908;28;19920;-85
2022/12/07 09:11:55;;;;;;;;;;;;;;;11.58;74.58;101564.06;5095061;28;19920;-86
2022/12/07 09:14:21;;;;;;;;;;;;;;;11.59;74.69;101562.34;5104873;28;19912;-86
2022/12/07 09:16:46;;;;;;;;;;;;;;;11.64;74.74;101568.78;5107161;28;20053;-88
2022/12/07 09:19:13;;;;;;;;;;;;;;;11.58;75.46;101557.94;5110109;27;20311;-89
2022/12/07 09:21:38;;;;;;;;;;;;;;;11.64;75.00;101565.22;5107491;27;20006;-86
2022/12/07 09:24:05;;;;;;;;;;;;;;;11.59;75.72;101555.38;5092869;27;20010;-88
2022/12/07 09:26:31;;;;;;;;;;;;;;;11.64;75.55;101553.09;5122959;27;19922;-88
2022/12/07 09:28:57;;;;;;;;;;;;;;;11.64;75.44;101552.16;5107137;27;19911;-86
2022/12/07 09:31:22;;;;;;;;;;;;;;;11.66;74.96;101554.06;5118501;27;19915;-89
2022/12/07 09:33:52;;;;;;;;;;;;;;;11.69;75.70;101555.97;5130294;27;20000;-85
2022/12/07 09:36:18;;;;;;;;;;;;;;;11.69;75.23;101550.75;5132675;27;19955;-88
2022/12/07 09:38:44;;;;;;;;;;;;;;;11.69;75.71;101554.25;5110266;27;19911;-87
2022/12/07 09:41:09;;;;;;;;;;;;;;;11.73;75.18;101539.66;5092688;27;20373;-88
2022/12/07 09:43:35;;;;;;;;;;;;;;;11.74;75.52;101544.06;5105064;27;20345;-88
2022/12/07 09:46:03;;;;;;;;;;;;;;;11.74;75.69;101539.72;5100128;28;19965;-88
2022/12/07 09:48:36;;;;;;;;;;;;;;;11.74;76.12;101544.97;5084472;27;19915;-88
2022/12/07 09:51:03;;;;;;;;;;;;;;;11.71;76.43;101534.31;5106164;27;19938;-87
2022/12/07 09:53:34;;;;;;;;;;;;;;;11.76;76.14;101534.59;5127581;27;19923;-88
2022/12/07 09:56:00;;;;;;;;;;;;;;;11.76;76.26;101522.41;5112982;27;19915;-88
2022/12/07 09:58:26;;;;;;;;;;;;;;;11.75;75.98;101518.00;5127242;27;20407;-86
2022/12/07 10:01:21;;;;;;;;;;;;;;;11.79;76.17;101517.38;5111599;28;19997;-88
2022/12/07 10:03:59;;;;;;;;;;;;;;;11.80;76.32;101510.44;5106227;27;19915;-89
2022/12/07 10:06:24;;;;;;;;;;;;;;;11.76;77.01;101505.81;5092786;28;20494;-88
2022/12/07 10:08:49;;;;;;;;;;;;;;;11.81;76.40;101501.78;5118781;27;19912;-88
2022/12/07 10:11:15;;;;;;;;;;;;;;;11.82;76.31;101506.19;5113650;27;19919;-89
2022/12/07 10:13:48;;;;;;;;;;;;;;;11.84;76.67;101504.56;5082730;28;20376;-88
2022/12/07 10:16:33;;;;;;;;;;;;;;;11.82;76.76;101504.47;5108460;27;21536;-87
2022/12/07 10:18:58;;;;;;;;;;;;;;;11.83;77.26;101505.38;5129766;27;19923;-88
2022/12/07 10:21:24;;;;;;;;;;;;;;;11.87;76.86;101503.84;5096825;27;19922;-88
2022/12/07 10:24:00;;;;;;;;;;;;;;;11.90;77.09;101498.84;5092534;27;19916;-88
2022/12/07 10:26:33;;;;;;;;;;;;;;;11.83;77.21;101497.53;5128365;27;19958;-89
2022/12/07 10:28:59;;;;;;;;;;;;;;;11.82;77.53;101480.91;5113029;27;19919;-88
2022/12/07 10:31:25;;;;;;;;;;;;;;;11.90;77.33;101486.66;5119681;27;20027;-86
2022/12/07 10:33:52;;;;;;;;;;;;;;;11.89;77.53;101489.19;5105824;27;20018;-87
2022/12/07 10:36:18;;;;;;;;;;;;;;;11.89;77.40;101486.56;5110303;27;19922;-88
2022/12/07 10:38:47;;;;;;;;;;;;;;;11.91;77.33;101480.59;5104086;28;19912;-88
2022/12/07 10:41:13;;;;;;;;;;;;;;;11.92;77.57;101481.53;5126757;27;20001;-88
2022/12/07 10:43:45;;;;;;;;;;;;;;;11.91;77.85;101479.72;5097534;28;19999;-88
2022/12/07 10:46:17;;;;;;;;;;;;;;;11.91;77.47;101477.97;5087864;28;20385;-88
2022/12/07 10:48:46;;;;;;;;;;;;;;;11.91;77.58;101475.38;5132814;28;19911;-87
2022/12/07 10:51:16;;;;;;;;;;;;;;;11.88;77.58;101476.88;5096911;28;20057;-88
2022/12/07 10:53:44;;;;;;;;;;;;;;;11.94;77.50;101479.91;5114453;28;19915;-89
2022/12/07 10:56:13;;;;;;;;;;;;;;;11.92;77.50;101485.03;5089364;28;19912;-87
2022/12/07 10:58:38;;;;;;;;;;;;;;;11.96;77.29;101475.66;5126975;28;20466;-87
2022/12/07 11:01:09;;;;;;;;;;;;;;;11.95;77.78;101473.84;5100051;28;19911;-89
2022/12/07 11:03:34;;;;;;;;;;;;;;;12.00;77.31;101467.16;5095555;28;19918;-88
2022/12/07 11:06:09;;;;;;;;;;;;;;;11.94;77.67;101462.47;5131255;28;19912;-88
2022/12/07 11:08:52;;;;;;;;;;;;;;;12.01;77.43;101456.78;5098805;28;19926;-85
2022/12/07 11:11:23;;;;;;;;;;;;;;;12.05;77.43;101455.25;5096341;28;20015;-87
2022/12/07 11:13:55;;;;;;;;;;;;;;;12.04;77.70;101453.44;5113789;28;19915;-87
2022/12/07 11:16:43;;;;;;;;;;;;;;;12.05;77.74;101455.25;5126589;28;19990;-87
2022/12/07 11:19:26;;;;;;;;;;;;;;;12.07;77.23;101460.59;5084377;28;19927;-87
2022/12/07 11:21:52;;;;;;;;;;;;;;;12.05;77.54;101449.13;5110958;28;19911;-87
2022/12/07 11:24:18;;;;;;;;;;;;;;;12.12;77.42;101446.03;5110736;28;19912;-87
2022/12/07 11:26:49;;;;;;;;;;;;;;;12.13;77.57;101443.53;5112744;28;19999;-86
2022/12/07 11:29:24;;;;;;;;;;;;;;;12.14;77.04;101445.31;5112589;28;19911;-87
2022/12/07 11:31:56;;;;;;;;;;;;;;;12.10;77.64;101448.56;5100856;28;19916;-87
2022/12/07 11:34:25;;;;;;;;;;;;;;;12.17;77.40;101439.34;5111953;28;19915;-88
2022/12/07 11:36:52;;;;;;;;;;;;;;;12.14;77.80;101437.47;5107920;28;19912;-86
2022/12/07 11:39:27;;;;;;;;;;;;;;;12.13;77.95;101432.16;5114546;28;19911;-88
2022/12/07 11:42:01;;;;;;;;;;;;;;;12.15;77.65;101434.03;5113626;28;19954;-87
2022/12/07 11:44:47;;;;;;;;;;;;;;;12.19;77.63;101427.25;5104155;28;19924;-88
2022/12/07 11:47:17;;;;;;;;;;;;;;;12.19;77.85;101420.31;5114131;28;19916;-87
2022/12/07 11:49:43;;;;;;;;;;;;;;;12.24;78.08;101419.69;5113228;28;19951;-87
2022/12/07 11:52:16;;;;;;;;;;;;;;;12.26;77.96;101432.03;5113797;28;20430;-88
2022/12/07 11:54:42;;;;;;;;;;;;;;;12.25;78.64;101422.38;5090520;28;19965;-85
2022/12/07 11:57:26;;;;;;;;;;;;;;;12.23;79.13;101418.75;5102896;28;19915;-88
2022/12/07 11:59:59;;;;;;;;;;;;;;;12.28;78.89;101417.31;5113244;28;20051;-86
2022/12/07 12:02:37;;;;;;;;;;;;;;;12.32;79.21;101411.44;5097356;28;19965;-87
2022/12/07 12:05:03;;;;;;;;;;;;;;;12.34;79.09;101414.13;5096779;28;19970;-89
2022/12/07 12:07:28;;;;;;;;;;;;;;;12.34;80.10;101406.28;5114509;28;19911;-88
2022/12/07 12:10:27;;;;;;;;;;;;;;;12.34;80.71;101399.34;5112834;28;20400;-88
2022/12/07 12:12:57;;;;;;;;;;;;;;;12.37;80.55;101390.75;5075624;28;20538;-88
2022/12/07 12:15:23;;;;;;;;;;;;;;;12.41;80.62;101390.13;5098388;28;19930;-89
2022/12/07 12:17:54;;;;;;;;;;;;;;;12.40;80.80;101396.16;5098215;28;20202;-89
2022/12/07 12:20:24;;;;;;;;;;;;;;;12.38;81.15;101390.84;5127250;27;19976;-89
2022/12/07 12:22:55;;;;;;;;;;;;;;;12.38;81.70;101384.69;5113371;27;19924;-88
2022/12/07 12:25:22;;;;;;;;;;;;;;;12.41;81.23;101383.16;5146085;27;20273;-87
2022/12/07 12:27:47;;;;;;;;;;;;;;;12.47;81.46;101386.94;5139575;27;19911;-89
2022/12/07 12:30:31;;;;;;;;;;;;;;;12.47;81.60;101384.34;5116138;27;20328;-89
2022/12/07 12:33:15;;;;;;;;;;;;;;;12.44;81.35;101387.66;5105656;28;20350;-88
2022/12/07 12:35:41;;;;;;;;;;;;;;;12.47;81.94;101376.47;5134473;27;19911;-88
2022/12/07 12:38:26;;;;;;;;;;;;;;;12.46;81.53;101374.66;5097601;28;19919;-88
2022/12/07 12:40:52;;;;;;;;;;;;;;;12.47;82.20;101385.22;5101785;27;19911;-88
2022/12/07 12:43:36;;;;;;;;;;;;;;;12.45;82.40;101378.09;5111641;27;19922;-88
2022/12/07 12:46:21;;;;;;;;;;;;;;;12.47;82.45;101376.47;5126101;27;19977;-88
2022/12/07 12:48:47;;;;;;;;;;;;;;;12.49;81.91;101377.44;5125961;27;19911;-87
2022/12/07 12:51:31;;;;;;;;;;;;;;;12.47;83.15;101376.47;5093940;27;19938;-88